Time;durP1;ratioP1;P1;durP2;ratioP2;P2;SDS_P1;SDS_P2;PMS_P1;PMS_P2;Temp;Humidity;BMP_temperature;BMP_pressure;BME280_temperature;BME280_humidity;BME280_pressure;Samples;Min_cycle;Max_cycle;Signal;HPM_P1;HPM_P2
2021/01/10 00:00:13;;;;;;;74.80;43.50;;;;;;;;;;4405666;32;20271;-55
2021/01/10 00:02:40;;;;;;;70.50;41.00;;;;;;;;;;4403239;32;20221;-55
2021/01/10 00:05:09;;;;;;;57.07;34.03;;;;;;;;;;4403830;32;20364;-57
2021/01/10 00:07:36;;;;;;;54.33;32.53;;;;;;;;;;4400199;32;20327;-55
2021/01/10 00:10:04;;;;;;;66.23;36.20;;;;;;;;;;4402510;32;20423;-55
2021/01/10 00:12:30;;;;;;;65.50;36.83;;;;;;;;;;4405242;32;20324;-56
2021/01/10 00:14:55;;;;;;;58.73;35.70;;;;;;;;;;4401456;32;20257;-55
2021/01/10 00:17:21;;;;;;;58.23;32.53;;;;;;;;;;4401217;32;20730;-56
2021/01/10 00:19:48;;;;;;;54.67;32.23;;;;;;;;;;4402982;32;20240;-56
2021/01/10 00:22:17;;;;;;;51.80;30.93;;;;;;;;;;4406082;32;20213;-56
2021/01/10 00:24:42;;;;;;;48.67;27.77;;;;;;;;;;4406453;32;20745;-55
2021/01/10 00:27:11;;;;;;;35.27;23.50;;;;;;;;;;4402924;32;20592;-56
2021/01/10 00:29:38;;;;;;;38.97;24.73;;;;;;;;;;4403268;32;20239;-54
2021/01/10 00:32:04;;;;;;;43.10;24.50;;;;;;;;;;4405917;32;20213;-55
2021/01/10 00:34:30;;;;;;;34.10;22.33;;;;;;;;;;4394438;32;20304;-55
2021/01/10 00:36:56;;;;;;;46.37;28.23;;;;;;;;;;4401193;32;20832;-58
2021/01/10 00:39:21;;;;;;;52.90;29.93;;;;;;;;;;4401521;32;20367;-57
2021/01/10 00:41:47;;;;;;;57.43;28.80;;;;;;;;;;4389494;32;20346;-56
2021/01/10 00:44:12;;;;;;;54.43;30.83;;;;;;;;;;4403225;32;20245;-56
2021/01/10 00:46:37;;;;;;;70.33;40.50;;;;;;;;;;4403744;32;20245;-55
2021/01/10 00:49:03;;;;;;;76.83;41.47;;;;;;;;;;4407809;32;20297;-56
2021/01/10 00:51:28;;;;;;;47.87;27.00;;;;;;;;;;4409116;32;20355;-56
2021/01/10 00:53:54;;;;;;;45.57;24.63;;;;;;;;;;4408361;32;20312;-56
2021/01/10 00:56:19;;;;;;;41.20;25.47;;;;;;;;;;4408037;32;20408;-56
2021/01/10 00:58:45;;;;;;;35.57;22.30;;;;;;;;;;4407568;32;20300;-56
2021/01/10 01:01:11;;;;;;;43.37;25.87;;;;;;;;;;4408436;32;20366;-56
2021/01/10 01:03:36;;;;;;;47.97;25.10;;;;;;;;;;4391998;32;20320;-56
2021/01/10 01:06:04;;;;;;;50.30;29.67;;;;;;;;;;4407705;32;20701;-56
2021/01/10 01:08:30;;;;;;;46.13;26.70;;;;;;;;;;4408075;32;20304;-56
2021/01/10 01:10:55;;;;;;;48.77;25.67;;;;;;;;;;4408225;32;20693;-56
2021/01/10 01:13:21;;;;;;;48.10;25.77;;;;;;;;;;4406539;32;20221;-55
2021/01/10 01:15:52;;;;;;;44.13;25.27;;;;;;;;;;4408447;32;20286;-54
2021/01/10 01:18:18;;;;;;;51.67;28.23;;;;;;;;;;4408649;32;20814;-56
2021/01/10 01:20:44;;;;;;;62.33;30.70;;;;;;;;;;4408441;32;20236;-55
2021/01/10 01:23:10;;;;;;;57.43;31.77;;;;;;;;;;4406471;32;20673;-56
2021/01/10 01:25:36;;;;;;;58.47;30.00;;;;;;;;;;4408584;32;20418;-55
2021/01/10 01:28:02;;;;;;;60.67;30.83;;;;;;;;;;4403178;32;20358;-55
2021/01/10 01:30:28;;;;;;;56.27;28.93;;;;;;;;;;4407831;32;20281;-56
2021/01/10 01:32:53;;;;;;;54.63;29.23;;;;;;;;;;4404921;32;20284;-56
2021/01/10 01:35:19;;;;;;;54.53;29.47;;;;;;;;;;4408311;32;20384;-56
2021/01/10 01:37:45;;;;;;;56.60;30.33;;;;;;;;;;4407654;32;20843;-56
2021/01/10 01:40:10;;;;;;;53.30;27.57;;;;;;;;;;4405030;32;20734;-55
2021/01/10 01:42:36;;;;;;;44.97;23.97;;;;;;;;;;4404640;32;20418;-56
2021/01/10 01:45:05;;;;;;;52.30;25.00;;;;;;;;;;4404646;32;20360;-57
2021/01/10 01:47:32;;;;;;;48.83;23.90;;;;;;;;;;4405053;32;20293;-56
2021/01/10 01:49:57;;;;;;;41.83;23.00;;;;;;;;;;4406353;32;20310;-57
2021/01/10 01:52:23;;;;;;;45.77;24.80;;;;;;;;;;4406594;32;20364;-57
2021/01/10 01:54:49;;;;;;;64.70;33.13;;;;;;;;;;4404770;32;20265;-56
2021/01/10 01:57:14;;;;;;;80.57;42.03;;;;;;;;;;4407702;32;20728;-56
2021/01/10 01:59:40;;;;;;;79.23;43.30;;;;;;;;;;4407388;32;20567;-57
2021/01/10 02:02:09;;;;;;;83.80;44.77;;;;;;;;;;4407559;32;20348;-57
2021/01/10 02:05:01;;;;;;;100.87;50.23;;;;;;;;;;4407433;32;20309;-56
2021/01/10 02:07:41;;;;;;;80.67;44.60;;;;;;;;;;4407500;32;20578;-56
2021/01/10 02:10:12;;;;;;;83.80;44.47;;;;;;;;;;4406509;32;20263;-55
2021/01/10 02:12:49;;;;;;;91.40;43.60;;;;;;;;;;4406753;32;20225;-57
2021/01/10 02:15:18;;;;;;;84.30;39.10;;;;;;;;;;4404921;32;20331;-54
2021/01/10 02:17:48;;;;;;;74.70;38.17;;;;;;;;;;4407713;32;20209;-55
2021/01/10 02:20:37;;;;;;;48.87;24.87;;;;;;;;;;4407672;32;20743;-55
2021/01/10 02:23:10;;;;;;;51.20;27.20;;;;;;;;;;4408542;32;20230;-55
2021/01/10 02:25:37;;;;;;;42.73;25.20;;;;;;;;;;4406601;32;20297;-55
2021/01/10 02:28:04;;;;;;;61.03;32.93;;;;;;;;;;4408195;32;20221;-55
2021/01/10 02:30:32;;;;;;;46.23;28.80;;;;;;;;;;4407003;32;20370;-55
2021/01/10 02:33:04;;;;;;;33.87;22.63;;;;;;;;;;4407450;32;20671;-56
2021/01/10 02:35:31;;;;;;;30.53;19.80;;;;;;;;;;4405782;32;20858;-56
2021/01/10 02:38:21;;;;;;;41.20;24.90;;;;;;;;;;4406914;32;20320;-55
2021/01/10 02:41:16;;;;;;;41.10;23.50;;;;;;;;;;4407686;32;20387;-55
2021/01/10 02:43:49;;;;;;;39.17;22.57;;;;;;;;;;4406659;32;20710;-55
2021/01/10 02:46:15;;;;;;;38.63;22.77;;;;;;;;;;4407409;32;20308;-54
2021/01/10 02:48:41;;;;;;;33.07;18.70;;;;;;;;;;4404152;32;20422;-55
2021/01/10 02:51:07;;;;;;;30.90;17.73;;;;;;;;;;4407573;32;20209;-56
2021/01/10 02:53:33;;;;;;;29.90;17.57;;;;;;;;;;4405852;32;20656;-56
2021/01/10 02:55:58;;;;;;;30.20;19.10;;;;;;;;;;4406501;32;20260;-55
2021/01/10 02:58:26;;;;;;;38.37;21.93;;;;;;;;;;4406133;32;20398;-55
2021/01/10 03:00:55;;;;;;;29.87;18.43;;;;;;;;;;4407112;32;20280;-55
2021/01/10 03:03:21;;;;;;;24.67;15.57;;;;;;;;;;4404718;32;20383;-55
2021/01/10 03:05:48;;;;;;;23.23;15.00;;;;;;;;;;4405298;32;20279;-57
2021/01/10 03:08:14;;;;;;;21.00;12.53;;;;;;;;;;4407452;32;20364;-54
2021/01/10 03:10:40;;;;;;;22.00;14.03;;;;;;;;;;4403451;32;20741;-57
2021/01/10 03:13:07;;;;;;;24.93;15.07;;;;;;;;;;4405793;32;20315;-55
2021/01/10 03:15:34;;;;;;;30.30;14.70;;;;;;;;;;4406485;32;20437;-54
2021/01/10 03:18:16;;;;;;;18.60;13.80;;;;;;;;;;4405290;32;20251;-53
2021/01/10 03:20:41;;;;;;;24.53;16.37;;;;;;;;;;4406967;32;20296;-55
2021/01/10 03:23:07;;;;;;;20.87;13.17;;;;;;;;;;4404016;32;20378;-56
2021/01/10 03:25:32;;;;;;;20.53;12.80;;;;;;;;;;4406047;32;20602;-55
2021/01/10 03:27:58;;;;;;;21.37;12.87;;;;;;;;;;4407227;32;20360;-55
2021/01/10 03:30:23;;;;;;;21.47;13.37;;;;;;;;;;4406796;32;20289;-56
2021/01/10 03:32:49;;;;;;;23.63;13.87;;;;;;;;;;4406577;32;20364;-56
2021/01/10 03:35:15;;;;;;;24.33;15.03;;;;;;;;;;4406159;32;20324;-56
2021/01/10 03:37:41;;;;;;;29.40;17.93;;;;;;;;;;4406626;32;20343;-55
2021/01/10 03:40:07;;;;;;;31.30;19.43;;;;;;;;;;4405832;32;20425;-55
2021/01/10 03:42:34;;;;;;;36.13;21.13;;;;;;;;;;4404062;32;20351;-56
2021/01/10 03:44:59;;;;;;;36.23;24.00;;;;;;;;;;4406235;32;20221;-55
2021/01/10 03:47:25;;;;;;;38.30;25.53;;;;;;;;;;4405571;32;20427;-54
2021/01/10 03:49:50;;;;;;;39.87;25.37;;;;;;;;;;4405815;32;20354;-55
2021/01/10 03:52:16;;;;;;;43.43;26.63;;;;;;;;;;4406236;32;20460;-56
2021/01/10 03:54:41;;;;;;;39.73;26.47;;;;;;;;;;4404817;32;20311;-55
2021/01/10 03:57:07;;;;;;;40.93;25.47;;;;;;;;;;4405708;32;20225;-55
2021/01/10 03:59:32;;;;;;;49.83;26.30;;;;;;;;;;4406010;32;20617;-54
2021/01/10 04:01:58;;;;;;;46.07;24.57;;;;;;;;;;4405624;32;20292;-54
2021/01/10 04:04:23;;;;;;;50.30;27.40;;;;;;;;;;4406524;32;20304;-54
2021/01/10 04:06:49;;;;;;;50.13;29.13;;;;;;;;;;4406291;32;20361;-54
2021/01/10 04:09:14;;;;;;;52.17;29.03;;;;;;;;;;4405384;32;20677;-54
2021/01/10 04:11:40;;;;;;;54.50;27.80;;;;;;;;;;4407119;32;20340;-54
2021/01/10 04:14:05;;;;;;;54.40;29.00;;;;;;;;;;4404471;32;20853;-55
2021/01/10 04:16:31;;;;;;;53.33;29.63;;;;;;;;;;4406637;32;20700;-54
2021/01/10 04:18:56;;;;;;;58.50;29.40;;;;;;;;;;4407076;32;20275;-55
2021/01/10 04:21:22;;;;;;;54.43;27.63;;;;;;;;;;4407016;32;20384;-55
2021/01/10 04:23:47;;;;;;;54.63;29.17;;;;;;;;;;4408877;32;20684;-54
2021/01/10 04:26:13;;;;;;;54.93;28.60;;;;;;;;;;4409801;32;20668;-55
2021/01/10 04:28:39;;;;;;;60.17;30.17;;;;;;;;;;4409739;32;20245;-54
2021/01/10 04:31:04;;;;;;;55.67;30.57;;;;;;;;;;4410199;32;20452;-54
2021/01/10 04:33:30;;;;;;;62.47;29.27;;;;;;;;;;4408429;32;21269;-54
2021/01/10 04:35:56;;;;;;;56.73;31.43;;;;;;;;;;4409142;32;20312;-55
2021/01/10 04:38:21;;;;;;;54.83;29.33;;;;;;;;;;4410767;32;20436;-55
2021/01/10 04:40:47;;;;;;;50.77;31.27;;;;;;;;;;4409871;32;20217;-55
2021/01/10 04:43:14;;;;;;;55.63;30.40;;;;;;;;;;4410000;32;20638;-56
2021/01/10 04:45:40;;;;;;;61.17;31.77;;;;;;;;;;4409624;32;20240;-54
2021/01/10 04:48:07;;;;;;;66.97;33.03;;;;;;;;;;4409730;32;20806;-56
2021/01/10 04:50:34;;;;;;;58.43;33.43;;;;;;;;;;4410347;32;20422;-56
2021/01/10 04:53:03;;;;;;;59.47;31.60;;;;;;;;;;4408328;32;20328;-55
2021/01/10 04:55:32;;;;;;;67.90;33.83;;;;;;;;;;4406525;32;20244;-55
2021/01/10 04:58:07;;;;;;;77.00;38.03;;;;;;;;;;4410196;32;20304;-55
2021/01/10 05:00:34;;;;;;;60.53;33.20;;;;;;;;;;4410015;32;20350;-54
2021/01/10 05:03:08;;;;;;;57.13;31.63;;;;;;;;;;4409162;32;20913;-54
2021/01/10 05:05:35;;;;;;;75.27;35.70;;;;;;;;;;4409244;32;20354;-55
2021/01/10 05:08:04;;;;;;;64.23;35.10;;;;;;;;;;4409613;32;20695;-55
2021/01/10 05:10:30;;;;;;;80.50;39.80;;;;;;;;;;4406186;32;20328;-55
2021/01/10 05:12:55;;;;;;;82.77;42.53;;;;;;;;;;4407186;32;20368;-55
2021/01/10 05:15:21;;;;;;;85.20;45.63;;;;;;;;;;4410086;32;20228;-55
2021/01/10 05:17:55;;;;;;;77.27;43.43;;;;;;;;;;4394175;32;20680;-55
2021/01/10 05:20:30;;;;;;;70.50;38.47;;;;;;;;;;4409639;32;20678;-55
2021/01/10 05:22:56;;;;;;;70.17;38.27;;;;;;;;;;4407646;32;20391;-55
2021/01/10 05:25:21;;;;;;;71.80;38.13;;;;;;;;;;4408853;32;20277;-55
2021/01/10 05:27:51;;;;;;;77.73;38.93;;;;;;;;;;4409614;32;20316;-55
2021/01/10 05:30:31;;;;;;;75.10;38.37;;;;;;;;;;4407644;32;20302;-54
2021/01/10 05:33:06;;;;;;;72.53;39.33;;;;;;;;;;4408422;32;21189;-55
2021/01/10 05:35:49;;;;;;;50.30;27.67;;;;;;;;;;4407376;32;20323;-56
2021/01/10 05:38:29;;;;;;;50.93;27.83;;;;;;;;;;4393788;32;20251;-55
2021/01/10 05:40:56;;;;;;;41.33;24.43;;;;;;;;;;4409283;32;20282;-55
2021/01/10 05:43:23;;;;;;;39.33;22.87;;;;;;;;;;4408643;32;20284;-54
2021/01/10 05:45:49;;;;;;;39.00;24.63;;;;;;;;;;4408182;32;20221;-54
2021/01/10 05:48:16;;;;;;;41.93;26.30;;;;;;;;;;4408478;32;20943;-55
2021/01/10 05:50:49;;;;;;;35.13;23.57;;;;;;;;;;4409022;32;20702;-54
2021/01/10 05:53:17;;;;;;;38.97;23.50;;;;;;;;;;4407947;32;20312;-54
2021/01/10 05:56:02;;;;;;;34.33;20.83;;;;;;;;;;4405487;32;20688;-54
2021/01/10 05:58:31;;;;;;;34.23;20.57;;;;;;;;;;4408018;32;20355;-54
2021/01/10 06:01:10;;;;;;;40.17;26.10;;;;;;;;;;4405661;32;20317;-55
2021/01/10 06:03:36;;;;;;;36.20;23.87;;;;;;;;;;4408870;32;20371;-55
2021/01/10 06:06:04;;;;;;;34.73;22.67;;;;;;;;;;4408786;32;20329;-55
2021/01/10 06:08:33;;;;;;;49.23;27.73;;;;;;;;;;4408077;32;20289;-54
2021/01/10 06:11:18;;;;;;;57.73;33.47;;;;;;;;;;4408480;32;20594;-54
2021/01/10 06:13:48;;;;;;;51.97;31.27;;;;;;;;;;4408442;32;20260;-55
2021/01/10 06:16:15;;;;;;;82.67;43.73;;;;;;;;;;4409624;32;20665;-55
2021/01/10 06:18:44;;;;;;;74.07;41.63;;;;;;;;;;4407133;32;20364;-54
2021/01/10 06:21:16;;;;;;;73.93;41.73;;;;;;;;;;4407304;32;20221;-55
2021/01/10 06:23:46;;;;;;;68.30;40.93;;;;;;;;;;4408146;32;20295;-55
2021/01/10 06:26:12;;;;;;;71.33;41.63;;;;;;;;;;4409680;32;20642;-55
2021/01/10 06:28:40;;;;;;;65.30;38.00;;;;;;;;;;4393488;32;20292;-56
2021/01/10 06:31:05;;;;;;;61.67;36.13;;;;;;;;;;4407951;32;20301;-56
2021/01/10 06:33:31;;;;;;;73.03;42.03;;;;;;;;;;4407714;32;20377;-56
2021/01/10 06:36:08;;;;;;;73.30;45.00;;;;;;;;;;4408524;32;20229;-55
2021/01/10 06:38:38;;;;;;;87.57;49.67;;;;;;;;;;4408181;32;20244;-55
2021/01/10 06:41:19;;;;;;;85.97;53.67;;;;;;;;;;4405215;32;20230;-55
2021/01/10 06:43:52;;;;;;;60.23;37.60;;;;;;;;;;4407460;32;20380;-55
2021/01/10 06:46:18;;;;;;;77.70;48.17;;;;;;;;;;4406471;32;20732;-55
2021/01/10 06:48:44;;;;;;;84.23;55.57;;;;;;;;;;4405264;32;20603;-55
2021/01/10 06:51:11;;;;;;;133.37;77.43;;;;;;;;;;4405840;32;20356;-55
2021/01/10 06:53:38;;;;;;;145.80;85.27;;;;;;;;;;4407639;32;20346;-55
2021/01/10 06:56:05;;;;;;;87.03;52.93;;;;;;;;;;4405052;32;20322;-55
2021/01/10 06:58:31;;;;;;;78.87;52.77;;;;;;;;;;4405155;32;20343;-56
2021/01/10 07:00:58;;;;;;;72.60;46.17;;;;;;;;;;4407995;32;20514;-55
2021/01/10 07:03:27;;;;;;;78.30;48.80;;;;;;;;;;4408064;32;20253;-55
2021/01/10 07:05:55;;;;;;;60.90;41.90;;;;;;;;;;4408214;32;20583;-55
2021/01/10 07:08:40;;;;;;;67.97;42.67;;;;;;;;;;4407718;32;20915;-54
2021/01/10 07:11:21;;;;;;;72.17;46.47;;;;;;;;;;4406138;32;20359;-55
2021/01/10 07:14:07;;;;;;;76.23;50.00;;;;;;;;;;4406989;32;20441;-54
2021/01/10 07:16:33;;;;;;;76.23;44.73;;;;;;;;;;4399566;32;20316;-54
2021/01/10 07:19:04;;;;;;;68.30;43.43;;;;;;;;;;4407238;32;20383;-54
2021/01/10 07:21:32;;;;;;;56.40;40.13;;;;;;;;;;4408298;32;20251;-55
2021/01/10 07:24:12;;;;;;;63.40;41.17;;;;;;;;;;4406844;32;20296;-54
2021/01/10 07:26:51;;;;;;;79.57;45.93;;;;;;;;;;4405642;32;20225;-54
2021/01/10 07:29:35;;;;;;;80.57;50.23;;;;;;;;;;4407389;32;20295;-53
2021/01/10 07:32:23;;;;;;;111.23;63.73;;;;;;;;;;4407377;32;20741;-55
2021/01/10 07:34:49;;;;;;;99.50;58.63;;;;;;;;;;4407290;32;20295;-54
2021/01/10 07:37:24;;;;;;;88.03;57.17;;;;;;;;;;4407070;32;20284;-53
2021/01/10 07:39:50;;;;;;;108.57;62.07;;;;;;;;;;4407406;32;20271;-54
2021/01/10 07:42:18;;;;;;;113.43;65.93;;;;;;;;;;4406891;32;20308;-55
2021/01/10 07:44:49;;;;;;;108.03;66.10;;;;;;;;;;4406671;32;20666;-54
2021/01/10 07:47:16;;;;;;;107.40;66.57;;;;;;;;;;4407186;32;20363;-54
2021/01/10 07:49:57;;;;;;;112.30;68.93;;;;;;;;;;4407279;32;20423;-53
2021/01/10 07:52:41;;;;;;;116.33;68.33;;;;;;;;;;4405086;32;20233;-53
2021/01/10 07:55:17;;;;;;;122.63;78.37;;;;;;;;;;4404932;32;20338;-54
2021/01/10 07:57:43;;;;;;;128.80;79.73;;;;;;;;;;4407581;32;20404;-54
2021/01/10 08:00:13;;;;;;;137.23;82.97;;;;;;;;;;4407445;32;20653;-54
2021/01/10 08:02:58;;;;;;;137.87;84.87;;;;;;;;;;4407049;32;20241;-54
2021/01/10 08:05:35;;;;;;;139.80;88.17;;;;;;;;;;4407853;32;20261;-54
2021/01/10 08:08:03;;;;;;;180.70;110.43;;;;;;;;;;4406397;32;20356;-53
2021/01/10 08:10:56;;;;;;;164.20;106.70;;;;;;;;;;4405103;32;20327;-54
2021/01/10 08:13:33;;;;;;;151.37;96.20;;;;;;;;;;4406472;32;20300;-54
2021/01/10 08:16:09;;;;;;;142.73;87.80;;;;;;;;;;4406805;32;20288;-54
2021/01/10 08:18:42;;;;;;;158.33;98.73;;;;;;;;;;4417654;32;20301;-54
2021/01/10 08:21:16;;;;;;;128.17;77.60;;;;;;;;;;4404799;32;20221;-54
2021/01/10 08:23:44;;;;;;;119.63;73.60;;;;;;;;;;4405320;32;20348;-54
2021/01/10 08:26:14;;;;;;;102.93;64.53;;;;;;;;;;4407196;32;20221;-55
2021/01/10 08:28:42;;;;;;;109.30;68.57;;;;;;;;;;4405241;32;20534;-55
2021/01/10 08:31:10;;;;;;;128.67;78.17;;;;;;;;;;4407247;32;20216;-54
2021/01/10 08:33:37;;;;;;;115.33;70.30;;;;;;;;;;4405796;32;20350;-54
2021/01/10 08:36:11;;;;;;;110.30;73.43;;;;;;;;;;4407600;32;20312;-53
2021/01/10 08:38:44;;;;;;;139.63;87.63;;;;;;;;;;4405901;32;20304;-55
2021/01/10 08:41:09;;;;;;;143.67;89.93;;;;;;;;;;4406949;32;20654;-54
2021/01/10 08:43:47;;;;;;;146.93;86.00;;;;;;;;;;4405297;32;20970;-55
2021/01/10 08:46:13;;;;;;;145.53;94.37;;;;;;;;;;4407571;32;20300;-55
2021/01/10 08:48:41;;;;;;;148.30;92.30;;;;;;;;;;4404895;32;20333;-55
2021/01/10 08:51:06;;;;;;;127.37;84.77;;;;;;;;;;4405649;32;20864;-55
2021/01/10 08:53:42;;;;;;;123.30;80.10;;;;;;;;;;4406490;32;20415;-56
2021/01/10 08:56:15;;;;;;;116.03;72.43;;;;;;;;;;4407529;32;20253;-54
2021/01/10 08:58:43;;;;;;;124.87;75.50;;;;;;;;;;4406364;32;20361;-55
2021/01/10 09:01:29;;;;;;;249.47;130.60;;;;;;;;;;4407230;32;20296;-55
2021/01/10 09:04:01;;;;;;;124.33;77.57;;;;;;;;;;4406217;32;20324;-55
2021/01/10 09:06:48;;;;;;;107.77;66.03;;;;;;;;;;4407883;32;20273;-55
2021/01/10 09:09:23;;;;;;;99.60;61.07;;;;;;;;;;4408276;32;20229;-54
2021/01/10 09:11:59;;;;;;;107.90;69.10;;;;;;;;;;4409078;32;20554;-55
2021/01/10 09:14:25;;;;;;;88.23;55.67;;;;;;;;;;4407603;32;20447;-54
2021/01/10 09:16:52;;;;;;;90.33;62.10;;;;;;;;;;4408332;32;20981;-55
2021/01/10 09:19:20;;;;;;;107.17;69.27;;;;;;;;;;4407187;32;20684;-53
2021/01/10 09:21:47;;;;;;;117.07;75.60;;;;;;;;;;4406867;32;20834;-54
2021/01/10 09:24:13;;;;;;;109.90;69.53;;;;;;;;;;4407600;32;20268;-54
2021/01/10 09:26:39;;;;;;;142.53;91.03;;;;;;;;;;4407795;32;20216;-54
2021/01/10 09:29:17;;;;;;;135.90;82.00;;;;;;;;;;4407278;32;20960;-54
2021/01/10 09:31:48;;;;;;;154.93;89.40;;;;;;;;;;4408645;32;20355;-54
2021/01/10 09:34:15;;;;;;;108.50;61.30;;;;;;;;;;4407479;32;20669;-54
2021/01/10 09:36:41;;;;;;;123.20;78.63;;;;;;;;;;4408847;32;20733;-54
2021/01/10 09:39:07;;;;;;;111.63;70.40;;;;;;;;;;4406926;32;20412;-54
2021/01/10 09:41:55;;;;;;;98.00;59.23;;;;;;;;;;4409259;32;20590;-55
2021/01/10 09:44:20;;;;;;;144.97;75.33;;;;;;;;;;4408100;32;20701;-54
2021/01/10 09:46:51;;;;;;;76.47;49.57;;;;;;;;;;4408499;32;20335;-53
2021/01/10 09:49:20;;;;;;;87.90;58.20;;;;;;;;;;4408947;32;20259;-53
2021/01/10 09:51:59;;;;;;;109.07;62.10;;;;;;;;;;4408472;32;20327;-56
2021/01/10 09:54:38;;;;;;;90.73;56.40;;;;;;;;;;4407210;32;20622;-53
2021/01/10 09:57:09;;;;;;;92.57;63.57;;;;;;;;;;4407626;32;20209;-54
2021/01/10 09:59:41;;;;;;;96.50;65.63;;;;;;;;;;4395283;32;20248;-54
2021/01/10 10:02:19;;;;;;;126.47;72.43;;;;;;;;;;4402797;32;20311;-54
2021/01/10 10:04:48;;;;;;;101.73;65.93;;;;;;;;;;4400551;32;20384;-54
2021/01/10 10:07:33;;;;;;;79.57;55.10;;;;;;;;;;4405284;32;20320;-55
2021/01/10 10:10:00;;;;;;;64.77;42.10;;;;;;;;;;4397657;32;20551;-56
2021/01/10 10:12:26;;;;;;;64.90;43.97;;;;;;;;;;4404849;32;20408;-55
2021/01/10 10:14:57;;;;;;;76.37;53.60;;;;;;;;;;4403115;32;20335;-55
2021/01/10 10:17:29;;;;;;;157.03;91.13;;;;;;;;;;4404566;32;20425;-55
2021/01/10 10:19:54;;;;;;;96.03;53.13;;;;;;;;;;4404541;32;20313;-54
2021/01/10 10:22:25;;;;;;;91.37;51.10;;;;;;;;;;4406011;32;20344;-55
2021/01/10 10:24:51;;;;;;;135.40;73.67;;;;;;;;;;4405190;32;20308;-56
2021/01/10 10:27:17;;;;;;;107.20;61.63;;;;;;;;;;4405893;32;20221;-56
2021/01/10 10:29:43;;;;;;;74.57;48.20;;;;;;;;;;4406679;32;20292;-54
2021/01/10 10:32:09;;;;;;;87.90;54.93;;;;;;;;;;4407595;32;20314;-55
2021/01/10 10:34:36;;;;;;;99.77;56.83;;;;;;;;;;4404866;32;20310;-55
2021/01/10 10:37:03;;;;;;;69.37;45.07;;;;;;;;;;4408757;32;20249;-58
2021/01/10 10:52:54;;;;;;;25.97;17.33;;;;;;;;;;4416246;32;20261;-57
2021/01/10 10:55:22;;;;;;;52.10;25.27;;;;;;;;;;4405429;32;20610;-58
2021/01/10 10:57:47;;;;;;;45.13;26.80;;;;;;;;;;4412311;32;20209;-57
2021/01/10 11:00:13;;;;;;;69.33;43.80;;;;;;;;;;4405391;32;20276;-56
2021/01/10 11:02:39;;;;;;;41.60;27.63;;;;;;;;;;4397158;32;20235;-57
2021/01/10 11:05:06;;;;;;;40.90;29.33;;;;;;;;;;4407186;32;20300;-56
2021/01/10 11:07:33;;;;;;;147.17;69.20;;;;;;;;;;4404925;32;20528;-57
2021/01/10 11:09:59;;;;;;;75.80;39.30;;;;;;;;;;4383197;32;20245;-56
2021/01/10 11:12:24;;;;;;;34.30;21.20;;;;;;;;;;4405377;32;20603;-56
2021/01/10 11:14:50;;;;;;;28.80;17.50;;;;;;;;;;4406893;32;20222;-57
2021/01/10 11:17:15;;;;;;;21.73;13.50;;;;;;;;;;4401798;32;20671;-57
2021/01/10 11:19:41;;;;;;;39.17;23.43;;;;;;;;;;4401594;32;20221;-57
2021/01/10 11:22:07;;;;;;;23.77;15.33;;;;;;;;;;4407868;32;20280;-57
2021/01/10 11:24:34;;;;;;;21.47;16.23;;;;;;;;;;4405440;32;20323;-57
2021/01/10 11:27:00;;;;;;;14.40;10.97;;;;;;;;;;4403831;32;20252;-57
2021/01/10 11:29:26;;;;;;;18.07;12.83;;;;;;;;;;4400864;32;20732;-58
2021/01/10 11:31:52;;;;;;;30.80;18.30;;;;;;;;;;4411133;32;20364;-58
2021/01/10 11:34:18;;;;;;;34.27;21.93;;;;;;;;;;4411340;32;20280;-57
2021/01/10 11:36:54;;;;;;;22.13;14.30;;;;;;;;;;4408357;32;20213;-57
2021/01/10 11:39:22;;;;;;;25.60;17.57;;;;;;;;;;4393067;32;20269;-57
2021/01/10 11:41:52;;;;;;;82.50;47.80;;;;;;;;;;4411822;32;20243;-57
2021/01/10 11:44:19;;;;;;;26.30;20.13;;;;;;;;;;4393393;32;20365;-57
2021/01/10 11:46:50;;;;;;;34.40;23.40;;;;;;;;;;4405214;32;20597;-60
2021/01/10 11:49:17;;;;;;;31.23;18.47;;;;;;;;;;4406961;32;20201;-59
2021/01/10 11:51:43;;;;;;;51.30;28.57;;;;;;;;;;4402346;32;20640;-57
2021/01/10 11:54:12;;;;;;;64.80;35.37;;;;;;;;;;4394327;32;20642;-58
2021/01/10 11:56:41;;;;;;;58.27;29.03;;;;;;;;;;4383230;32;20761;-56
2021/01/10 11:59:07;;;;;;;51.80;31.07;;;;;;;;;;4393215;32;20963;-57
2021/01/10 12:01:35;;;;;;;24.73;18.70;;;;;;;;;;4398324;32;20365;-56
2021/01/10 12:04:02;;;;;;;27.00;20.67;;;;;;;;;;4396343;32;20529;-56
2021/01/10 12:06:28;;;;;;;31.97;21.43;;;;;;;;;;4392189;32;20304;-57
2021/01/10 12:08:54;;;;;;;21.23;13.50;;;;;;;;;;4398044;32;20273;-58
2021/01/10 12:11:19;;;;;;;20.43;13.80;;;;;;;;;;4400822;32;20558;-57
2021/01/10 12:13:45;;;;;;;35.20;23.17;;;;;;;;;;4377897;32;20370;-57
2021/01/10 12:16:15;;;;;;;43.10;27.73;;;;;;;;;;4393122;32;20261;-57
2021/01/10 12:18:42;;;;;;;35.87;25.37;;;;;;;;;;4394417;32;20228;-57
2021/01/10 12:21:12;;;;;;;19.57;14.57;;;;;;;;;;4396661;32;20833;-58
2021/01/10 12:23:38;;;;;;;19.57;12.23;;;;;;;;;;4384926;32;20229;-57
2021/01/10 12:26:12;;;;;;;17.37;12.23;;;;;;;;;;4384322;32;20268;-56
2021/01/10 12:28:38;;;;;;;44.27;28.60;;;;;;;;;;4401926;32;20830;-56
2021/01/10 12:31:04;;;;;;;36.83;23.07;;;;;;;;;;4401216;32;20847;-57
2021/01/10 12:33:35;;;;;;;14.43;10.57;;;;;;;;;;4397914;32;20240;-57
2021/01/10 12:36:02;;;;;;;13.70;10.27;;;;;;;;;;4387527;32;20401;-58
2021/01/10 12:38:28;;;;;;;16.27;11.40;;;;;;;;;;4401939;32;20643;-60
2021/01/10 12:40:54;;;;;;;20.77;15.30;;;;;;;;;;4397293;32;20276;-57
2021/01/10 12:43:19;;;;;;;29.57;22.03;;;;;;;;;;4389692;32;20725;-58
2021/01/10 12:45:46;;;;;;;50.83;31.50;;;;;;;;;;4399643;32;20343;-56
2021/01/10 12:48:12;;;;;;;34.60;23.73;;;;;;;;;;4400942;32;20194;-60
2021/01/10 12:50:38;;;;;;;44.10;25.97;;;;;;;;;;4398704;32;20426;-59
2021/01/10 12:53:04;;;;;;;49.40;27.40;;;;;;;;;;4399441;32;20309;-58
2021/01/10 12:55:29;;;;;;;35.87;21.00;;;;;;;;;;4387986;32;20662;-59
2021/01/10 12:57:55;;;;;;;32.77;18.60;;;;;;;;;;4399448;32;20277;-60
2021/01/10 13:00:20;;;;;;;33.53;18.33;;;;;;;;;;4386474;32;20230;-60
2021/01/10 13:02:46;;;;;;;80.03;44.60;;;;;;;;;;4398948;32;20382;-57
2021/01/10 13:05:13;;;;;;;23.57;15.90;;;;;;;;;;4402281;32;20318;-57
2021/01/10 13:07:39;;;;;;;30.23;19.37;;;;;;;;;;4392485;32;20505;-58
2021/01/10 13:10:07;;;;;;;25.77;16.67;;;;;;;;;;4396494;32;20293;-58
2021/01/10 13:12:33;;;;;;;23.40;12.07;;;;;;;;;;4398329;32;20316;-59
2021/01/10 13:15:00;;;;;;;17.40;10.13;;;;;;;;;;4381971;32;20705;-60
2021/01/10 13:17:26;;;;;;;13.50;8.37;;;;;;;;;;4397357;32;20217;-57
2021/01/10 13:19:52;;;;;;;20.17;14.13;;;;;;;;;;4402619;32;20581;-56
2021/01/10 13:22:17;;;;;;;28.30;17.27;;;;;;;;;;4402119;32;20334;-57
2021/01/10 13:24:43;;;;;;;39.67;26.67;;;;;;;;;;4398668;32;20306;-56
2021/01/10 13:27:09;;;;;;;27.57;18.50;;;;;;;;;;4397641;32;20249;-56
2021/01/10 13:29:34;;;;;;;27.37;19.90;;;;;;;;;;4388440;32;20384;-57
2021/01/10 13:32:01;;;;;;;32.10;20.53;;;;;;;;;;4396268;32;20444;-56
2021/01/10 13:34:27;;;;;;;40.27;26.60;;;;;;;;;;4388386;32;20264;-57
2021/01/10 13:36:57;;;;;;;42.30;26.80;;;;;;;;;;4393972;32;20619;-57
2021/01/10 13:39:23;;;;;;;45.87;28.77;;;;;;;;;;4402400;32;20284;-57
2021/01/10 13:41:48;;;;;;;48.37;31.50;;;;;;;;;;4387821;32;20233;-56
2021/01/10 13:44:14;;;;;;;49.60;34.03;;;;;;;;;;4378845;32;20237;-56
2021/01/10 13:46:39;;;;;;;82.30;55.20;;;;;;;;;;4386763;32;20328;-56
2021/01/10 13:49:05;;;;;;;57.07;35.83;;;;;;;;;;4394215;32;20748;-57
2021/01/10 13:51:31;;;;;;;55.43;33.83;;;;;;;;;;4400353;32;20271;-55
2021/01/10 13:53:56;;;;;;;65.40;45.83;;;;;;;;;;4397635;32;20293;-56
2021/01/10 13:56:28;;;;;;;132.03;76.47;;;;;;;;;;4400238;32;20328;-57
2021/01/10 13:58:54;;;;;;;92.57;59.93;;;;;;;;;;4400994;32;20256;-57
2021/01/10 14:01:30;;;;;;;40.83;25.73;;;;;;;;;;4397817;32;20261;-56
2021/01/10 14:03:56;;;;;;;39.10;25.13;;;;;;;;;;4399791;32;20237;-55
2021/01/10 14:06:23;;;;;;;41.50;23.53;;;;;;;;;;4393117;32;20397;-56
2021/01/10 14:08:49;;;;;;;34.83;23.00;;;;;;;;;;4386013;32;20238;-55
2021/01/10 14:11:26;;;;;;;47.20;26.97;;;;;;;;;;4391094;32;20271;-55
2021/01/10 14:13:56;;;;;;;45.10;24.90;;;;;;;;;;4395351;32;20339;-56
2021/01/10 14:16:22;;;;;;;57.50;32.43;;;;;;;;;;4400649;32;20717;-56
2021/01/10 14:18:49;;;;;;;135.53;73.37;;;;;;;;;;4400013;32;20256;-56
2021/01/10 14:21:22;;;;;;;75.00;44.00;;;;;;;;;;4386196;32;20248;-56
2021/01/10 14:23:48;;;;;;;61.80;38.33;;;;;;;;;;4400298;32;20233;-56
2021/01/10 14:26:24;;;;;;;34.37;23.97;;;;;;;;;;4372477;32;20233;-53
2021/01/10 14:28:49;;;;;;;63.40;41.63;;;;;;;;;;4398974;32;20217;-56
2021/01/10 14:31:15;;;;;;;80.67;48.10;;;;;;;;;;4396097;32;20335;-55
2021/01/10 14:33:40;;;;;;;76.03;48.13;;;;;;;;;;4394665;32;20805;-56
2021/01/10 14:36:07;;;;;;;136.73;75.13;;;;;;;;;;4393423;32;20747;-55